This is the latest recevied weather packets stored in our database for station/object EB2EMZ-W. If no packets are shown the sender has not sent any weather packets the latest 10 day(s).
| Time | Temp. | Humidity | Pressure | Rain* | Wind** | Luminosity | Snow |
|---|---|---|---|---|---|---|---|
| 1777494009 | 16.67° C | 79% | 993 hPa | 0 mm | - | - | - |
| 1777492190 | 16.11° C | 80% | 993 hPa | 8.89 mm | - | - | - |
| 1777490370 | 17.22° C | 69% | 992 hPa | 8.89 mm | - | - | - |
| 1777488549 | 18.33° C | 72% | 992 hPa | 0 mm | - | - | - |
| 1777486729 | 20° C | 61% | 991 hPa | 0 mm | - | - | - |
| 1777484909 | 22.78° C | 47% | 991 hPa | 0 mm | - | - | - |
| 1777483089 | 19.44° C | 67% | 991 hPa | 0 mm | - | - | - |
| 1777481269 | 20° C | 57% | 991 hPa | 7.87 mm | - | - | - |
| 1777479448 | 22.22° C | 68% | 990 hPa | 7.87 mm | - | - | - |
| 1777477628 | 21.11° C | 51% | 990 hPa | 0 mm | - | - | - |
| 1777475808 | 23.33° C | 34% | 990 hPa | 0 mm | - | - | - |
| 1777473988 | 25.56° C | 30% | 990 hPa | 0 mm | - | - | - |
| 1777472168 | 25° C | 33% | 990 hPa | 0 mm | - | - | - |
| 1777470348 | 23.33° C | 38% | 990 hPa | 0 mm | - | - | - |
| 1777468528 | 24.44° C | 35% | 990 hPa | 0 mm | - | - | - |
| 1777466707 | 25° C | 35% | 990 hPa | 0 mm | - | - | - |
| 1777464888 | 24.44° C | 35% | 990 hPa | 0 mm | - | - | - |
| 1777463068 | 22.78° C | 42% | 991 hPa | 0 mm | - | - | - |
| 1777461247 | 22.22° C | 48% | 991 hPa | 0 mm | - | - | - |
| 1777459426 | 21.67° C | 53% | 991 hPa | 0 mm | - | - | - |
| 1777457608 | 19.44° C | 70% | 991 hPa | 0 mm | - | - | - |
| 1777453966 | 17.78° C | 72% | 992.1 hPa | 0 mm | - | - | - |
| 1777452146 | 17.22° C | 73% | 992 hPa | 2.03 mm | - | - | - |
| 1777450326 | 17.22° C | 76% | 992 hPa | 2.03 mm | - | - | - |
| 1777448506 | 16.11° C | 77% | 992 hPa | 0 mm | - | - | - |
* Rain latest hour (hover to see other rain measurements)
** Current wind speed in m/s (hover to see current wind gust speed)